Time;durP1;ratioP1;P1;durP2;ratioP2;P2;SDS_P1;SDS_P2;PMS_P1;PMS_P2;Temp;Humidity;BMP_temperature;BMP_pressure;BME280_temperature;BME280_humidity;BME280_pressure;Samples;Min_cycle;Max_cycle;Signal;HPM_P1;HPM_P2
2023/06/04 00:02:22;;;;;;;3.45;1.52;;;14.90;55.90;;;;;;4995197;28;20050;-72
2023/06/04 00:04:49;;;;;;;3.03;1.35;;;14.90;55.60;;;;;;4993503;28;20046;-72
2023/06/04 00:07:16;;;;;;;3.45;1.30;;;14.90;55.40;;;;;;4990907;28;20045;-75
2023/06/04 00:09:43;;;;;;;4.35;1.50;;;14.90;55.10;;;;;;4994088;28;20046;-74
2023/06/04 00:12:10;;;;;;;3.33;1.08;;;14.90;55.10;;;;;;4994351;28;20129;-75
2023/06/04 00:14:37;;;;;;;2.75;1.48;;;14.90;54.90;;;;;;4994012;28;20413;-75
2023/06/04 00:17:06;;;;;;;4.00;1.35;;;14.80;55.20;;;;;;4996213;28;20049;-75
2023/06/04 00:19:33;;;;;;;4.40;1.30;;;14.70;55.80;;;;;;4997147;28;20077;-74
2023/06/04 00:22:00;;;;;;;4.38;1.73;;;14.70;55.70;;;;;;4992342;28;20141;-74
2023/06/04 00:24:27;;;;;;;5.03;1.73;;;14.70;55.60;;;;;;4992306;28;20056;-74
2023/06/04 00:26:54;;;;;;;5.55;1.60;;;14.60;56.10;;;;;;4994407;28;20049;-74
2023/06/04 00:29:21;;;;;;;3.65;1.88;;;14.50;56.60;;;;;;4991199;28;20053;-74
2023/06/04 00:31:48;;;;;;;4.75;1.70;;;14.50;56.80;;;;;;4996984;28;20060;-70
2023/06/04 00:34:21;;;;;;;5.93;1.73;;;14.50;57.10;;;;;;4992521;28;20490;-70
2023/06/04 00:36:48;;;;;;;4.82;1.67;;;14.40;57.40;;;;;;4995524;28;20065;-61
2023/06/04 00:39:15;;;;;;;3.80;1.50;;;14.40;57.20;;;;;;4972486;28;20046;-61
2023/06/04 00:41:42;;;;;;;4.68;1.70;;;14.40;56.60;;;;;;4975782;28;20134;-76
2023/06/04 00:44:09;;;;;;;4.90;1.60;;;14.50;56.30;;;;;;4992444;28;20075;-75
2023/06/04 00:46:36;;;;;;;2.50;1.30;;;14.40;56.40;;;;;;4992789;28;20046;-61
2023/06/04 00:49:03;;;;;;;3.90;1.27;;;14.40;56.70;;;;;;4977053;28;20051;-61
2023/06/04 00:51:33;;;;;;;3.67;1.20;;;14.30;57.10;;;;;;4993432;28;20474;-76
2023/06/04 00:54:01;;;;;;;3.90;1.48;;;14.30;57.00;;;;;;4993621;28;20046;-75
2023/06/04 00:56:28;;;;;;;3.60;1.20;;;14.20;57.10;;;;;;4992962;28;20058;-64
2023/06/04 00:58:55;;;;;;;4.18;1.50;;;14.20;57.30;;;;;;4989689;28;20058;-64
2023/06/04 01:01:27;;;;;;;3.30;1.35;;;14.10;57.60;;;;;;4981155;28;20053;-70
2023/06/04 01:03:58;;;;;;;2.53;1.17;;;14.10;57.80;;;;;;4994152;28;20103;-70
2023/06/04 01:06:32;;;;;;;2.72;1.33;;;14.10;57.80;;;;;;4994787;28;20049;-68
2023/06/04 01:09:02;;;;;;;3.72;1.27;;;14.00;57.80;;;;;;4994648;28;20050;-68
2023/06/04 01:11:34;;;;;;;5.75;1.30;;;13.90;58.00;;;;;;4994600;28;20140;-68
2023/06/04 01:14:01;;;;;;;3.67;1.27;;;13.90;58.00;;;;;;4968342;28;20568;-68
2023/06/04 01:16:31;;;;;;;4.28;1.55;;;13.90;58.00;;;;;;4972421;28;20046;-73
2023/06/04 01:19:02;;;;;;;3.47;1.45;;;13.90;58.20;;;;;;4976313;28;20047;-75
2023/06/04 01:21:32;;;;;;;3.05;1.30;;;13.80;58.30;;;;;;4992957;28;20256;-74
2023/06/04 01:24:02;;;;;;;3.03;1.10;;;13.70;58.40;;;;;;4993830;28;20061;-75
2023/06/04 01:26:32;;;;;;;3.15;1.15;;;13.70;58.70;;;;;;4993552;28;20054;-74
2023/06/04 01:28:59;;;;;;;;;;;13.60;58.90;;;;;;4992360;28;20092;-75
2023/06/04 01:31:26;;;;;;;2.13;1.00;;;13.60;59.00;;;;;;4974601;28;19926;-69
2023/06/04 01:33:55;;;;;;;3.75;1.10;;;13.50;59.30;;;;;;4992969;28;20062;-70
2023/06/04 01:36:22;;;;;;;3.10;1.20;;;13.50;59.40;;;;;;4972462;28;20054;-70
2023/06/04 01:38:50;;;;;;;2.17;0.95;;;13.40;59.70;;;;;;4994829;28;20046;-69
2023/06/04 01:41:19;;;;;;;4.05;1.00;;;13.40;59.50;;;;;;4993454;28;20120;-61
2023/06/04 01:43:46;;;;;;;2.28;1.00;;;13.40;59.50;;;;;;4993196;28;20042;-61
2023/06/04 01:46:13;;;;;;;4.32;1.20;;;13.40;59.50;;;;;;4994297;28;20397;-74
2023/06/04 01:48:40;;;;;;;1.73;0.77;;;13.40;59.40;;;;;;4967944;28;20056;-73
2023/06/04 01:51:07;;;;;;;2.42;1.10;;;13.30;59.60;;;;;;4993303;28;20054;-66
2023/06/04 01:53:34;;;;;;;4.20;1.30;;;13.30;59.90;;;;;;4988224;28;20054;-65
2023/06/04 01:56:02;;;;;;;2.60;1.10;;;13.20;60.00;;;;;;4993337;28;20050;-61
2023/06/04 01:58:31;;;;;;;3.85;1.25;;;13.20;60.10;;;;;;4975344;28;20125;-61
2023/06/04 02:01:02;;;;;;;3.47;1.38;;;13.20;60.20;;;;;;4990763;28;20068;-74
2023/06/04 02:03:35;;;;;;;3.28;1.27;;;13.10;60.30;;;;;;4992874;28;20050;-74
2023/06/04 02:06:02;;;;;;;3.45;1.40;;;13.20;59.80;;;;;;4973200;28;20058;-67
2023/06/04 02:08:30;;;;;;;3.10;1.10;;;13.20;59.60;;;;;;4966823;28;20516;-68
2023/06/04 02:10:57;;;;;;;3.50;1.40;;;13.10;59.70;;;;;;4977191;28;20050;-74
2023/06/04 02:13:24;;;;;;;3.58;1.20;;;13.10;59.50;;;;;;4994398;28;20042;-75
2023/06/04 02:15:52;;;;;;;4.60;1.38;;;13.10;59.40;;;;;;4995866;28;20053;-74
2023/06/04 02:18:22;;;;;;;3.25;1.00;;;13.10;59.30;;;;;;4995696;28;20038;-74
2023/06/04 02:20:50;;;;;;;3.63;1.23;;;13.00;59.30;;;;;;4998163;28;20147;-74
2023/06/04 02:23:19;;;;;;;3.35;1.20;;;12.90;59.20;;;;;;4997226;28;20057;-75
2023/06/04 02:25:48;;;;;;;4.20;1.05;;;12.90;59.30;;;;;;4991525;28;20449;-64
2023/06/04 02:28:15;;;;;;;2.75;1.10;;;12.80;59.30;;;;;;4994784;28;20050;-65
2023/06/04 02:30:42;;;;;;;7.20;2.05;;;12.80;59.50;;;;;;4995257;28;20060;-68
2023/06/04 02:33:10;;;;;;;3.25;1.40;;;12.80;59.40;;;;;;4973138;28;20057;-67
2023/06/04 02:35:38;;;;;;;2.65;1.02;;;12.70;59.50;;;;;;4980230;28;20045;-64
2023/06/04 02:38:05;;;;;;;2.30;1.08;;;12.70;59.50;;;;;;4994720;28;20049;-64
2023/06/04 02:40:31;;;;;;;2.97;1.15;;;12.60;59.70;;;;;;4979840;28;20066;-69
2023/06/04 02:42:58;;;;;;;4.72;1.27;;;12.70;59.60;;;;;;4990634;28;21866;-70
2023/06/04 02:45:26;;;;;;;3.10;1.10;;;12.80;59.20;;;;;;4977071;28;20549;-75
2023/06/04 02:47:53;;;;;;;2.42;1.20;;;12.70;59.10;;;;;;4995955;28;20456;-74
2023/06/04 02:50:21;;;;;;;3.13;1.30;;;12.70;59.10;;;;;;4995192;28;20092;-75
2023/06/04 02:52:48;;;;;;;2.35;1.10;;;12.70;59.30;;;;;;4996535;28;20052;-74
2023/06/04 02:55:15;;;;;;;2.78;1.10;;;12.80;59.00;;;;;;4975537;28;20054;-75
2023/06/04 02:57:43;;;;;;;3.20;1.40;;;12.70;59.10;;;;;;4992512;28;20135;-75
2023/06/04 03:00:12;;;;;;;2.53;1.00;;;12.70;59.10;;;;;;4992653;28;20046;-75
2023/06/04 03:02:41;;;;;;;3.00;1.13;;;12.60;59.60;;;;;;4978065;28;20046;-75
2023/06/04 03:05:10;;;;;;;5.28;1.30;;;12.50;59.80;;;;;;4994372;28;20039;-75
2023/06/04 03:07:40;;;;;;;2.93;1.20;;;12.40;60.00;;;;;;4997072;28;20054;-74
2023/06/04 03:10:08;;;;;;;3.63;1.00;;;12.40;60.20;;;;;;4967793;28;20050;-75
2023/06/04 03:12:35;;;;;;;2.53;1.10;;;12.30;60.60;;;;;;4997607;28;20061;-74
2023/06/04 03:15:02;;;;;;;2.08;1.08;;;12.30;60.50;;;;;;4976567;28;20072;-74
2023/06/04 03:17:31;;;;;;;2.28;0.95;;;12.30;60.70;;;;;;4991402;28;20094;-60
2023/06/04 03:19:58;;;;;;;3.15;1.05;;;12.30;60.80;;;;;;4996789;28;20054;-60
2023/06/04 03:22:25;;;;;;;4.35;1.30;;;12.30;61.00;;;;;;4996511;28;20057;-73
2023/06/04 03:24:53;;;;;;;3.28;1.10;;;12.30;61.20;;;;;;4989313;28;20494;-73
2023/06/04 03:27:21;;;;;;;4.22;1.45;;;12.30;61.10;;;;;;4974055;28;20062;-64
2023/06/04 03:29:48;;;;;;;3.40;1.10;;;12.30;61.20;;;;;;4977058;28;20058;-64
2023/06/04 03:32:16;;;;;;;2.60;1.20;;;12.30;61.40;;;;;;4993937;28;20548;-63
2023/06/04 03:34:44;;;;;;;2.60;1.15;;;12.30;61.50;;;;;;4978945;28;20109;-63
2023/06/04 03:37:11;;;;;;;2.50;1.00;;;12.20;61.60;;;;;;4976736;28;20401;-74
2023/06/04 03:39:38;;;;;;;2.90;1.17;;;12.20;61.70;;;;;;4987776;28;20552;-74
2023/06/04 03:42:09;;;;;;;3.70;1.33;;;12.20;61.90;;;;;;4978532;28;20058;-69
2023/06/04 03:44:36;;;;;;;3.05;1.27;;;12.20;62.20;;;;;;4990936;28;20074;-68
2023/06/04 03:47:04;;;;;;;3.28;1.05;;;12.10;62.10;;;;;;4992839;28;20446;-74
2023/06/04 03:49:31;;;;;;;3.28;1.10;;;12.10;62.20;;;;;;4976951;28;20054;-74
2023/06/04 03:51:58;;;;;;;2.65;1.10;;;12.20;62.10;;;;;;4978734;28;20046;-76
2023/06/04 03:54:25;;;;;;;3.38;1.20;;;12.20;61.90;;;;;;4992971;28;20041;-76
2023/06/04 03:56:53;;;;;;;3.22;1.15;;;12.10;62.00;;;;;;4976937;28;20042;-74
2023/06/04 03:59:21;;;;;;;4.15;1.30;;;12.10;62.20;;;;;;4990386;28;20045;-75
2023/06/04 04:01:48;;;;;;;2.28;1.25;;;12.10;62.30;;;;;;4993501;28;20046;-74
2023/06/04 04:04:15;;;;;;;3.30;1.30;;;12.00;62.70;;;;;;4978626;28;20058;-74
2023/06/04 04:06:42;;;;;;;3.15;1.33;;;12.00;62.70;;;;;;4989299;28;20046;-62
2023/06/04 04:09:10;;;;;;;3.38;1.38;;;11.90;63.00;;;;;;4975569;28;20042;-64
2023/06/04 04:11:37;;;;;;;2.70;1.48;;;11.90;63.20;;;;;;4973790;28;20058;-75
2023/06/04 04:14:07;;;;;;;3.67;1.42;;;12.00;63.10;;;;;;4978767;28;20045;-76
2023/06/04 04:16:36;;;;;;;3.17;1.38;;;12.00;62.90;;;;;;4975299;28;20050;-65
2023/06/04 04:19:03;;;;;;;4.43;1.40;;;12.00;63.00;;;;;;4976023;28;20164;-65
2023/06/04 04:21:30;;;;;;;3.85;1.50;;;12.10;62.80;;;;;;4994707;28;20050;-76
2023/06/04 04:23:57;;;;;;;3.28;1.20;;;12.10;62.90;;;;;;4995987;28;20466;-76
2023/06/04 04:26:27;;;;;;;3.50;1.60;;;12.00;63.00;;;;;;4973130;28;20085;-74
2023/06/04 04:28:57;;;;;;;4.18;1.27;;;12.10;63.00;;;;;;4973424;28;20133;-75
2023/06/04 04:31:26;;;;;;;2.88;1.30;;;12.20;62.70;;;;;;4976576;28;20065;-75
2023/06/04 04:33:56;;;;;;;2.35;1.15;;;12.20;62.30;;;;;;4976635;28;20058;-75
2023/06/04 04:36:23;;;;;;;2.45;1.20;;;12.20;62.20;;;;;;4992467;28;20367;-73
2023/06/04 04:38:53;;;;;;;2.95;1.17;;;12.20;62.10;;;;;;4994841;28;20056;-73
2023/06/04 04:41:22;;;;;;;3.95;0.98;;;12.10;62.30;;;;;;4977931;28;20050;-61
2023/06/04 04:43:49;;;;;;;3.25;1.10;;;12.20;62.20;;;;;;4978127;28;20413;-61
2023/06/04 04:46:24;;;;;;;3.38;1.33;;;12.30;61.80;;;;;;4974110;28;20137;-74
2023/06/04 04:48:52;;;;;;;2.90;1.17;;;12.30;61.80;;;;;;4982353;28;20052;-74
2023/06/04 04:51:21;;;;;;;3.28;1.35;;;12.30;61.80;;;;;;4967103;28;20094;-68
2023/06/04 04:53:48;;;;;;;3.08;1.42;;;12.30;62.10;;;;;;4975256;28;20050;-68
2023/06/04 04:56:15;;;;;;;3.13;1.17;;;12.30;62.00;;;;;;4968084;28;20046;-68
2023/06/04 04:58:47;;;;;;;3.85;1.40;;;12.40;62.10;;;;;;4973565;28;20050;-67
2023/06/04 05:01:14;;;;;;;3.78;1.30;;;12.40;62.00;;;;;;4976325;28;20097;-65
2023/06/04 05:03:42;;;;;;;3.95;1.17;;;12.40;62.20;;;;;;4975566;28;20056;-65
2023/06/04 05:06:11;;;;;;;4.50;1.30;;;12.50;62.10;;;;;;4992680;28;20375;-74
2023/06/04 05:08:41;;;;;;;5.28;1.58;;;12.60;62.00;;;;;;4976971;28;20136;-75
2023/06/04 05:11:08;;;;;;;4.57;1.50;;;12.60;61.90;;;;;;4978300;28;20080;-74
2023/06/04 05:13:36;;;;;;;4.47;1.70;;;12.70;61.70;;;;;;4975632;28;20054;-74
2023/06/04 05:16:06;;;;;;;3.05;1.38;;;12.70;61.80;;;;;;4956367;28;20311;-68
2023/06/04 05:18:35;;;;;;;4.68;1.58;;;12.80;61.60;;;;;;4991430;28;20132;-67
2023/06/04 05:21:07;;;;;;;3.88;1.73;;;12.90;61.30;;;;;;4967360;28;20112;-64
2023/06/04 05:23:37;;;;;;;3.55;1.65;;;12.80;61.30;;;;;;4969228;28;20549;-66
2023/06/04 05:26:06;;;;;;;4.50;1.42;;;12.90;60.70;;;;;;4973033;28;20050;-65
2023/06/04 05:28:33;;;;;;;4.30;1.33;;;12.90;60.50;;;;;;4976714;28;20081;-65
2023/06/04 05:31:02;;;;;;;3.83;1.40;;;13.00;60.40;;;;;;4985034;28;20046;-64
2023/06/04 05:33:33;;;;;;;3.75;1.40;;;13.10;60.00;;;;;;4973334;28;20589;-64
2023/06/04 05:36:05;;;;;;;3.55;1.15;;;13.10;59.90;;;;;;4968059;28;20053;-63
2023/06/04 05:38:37;;;;;;;3.92;1.60;;;13.10;59.90;;;;;;4991763;28;20051;-63
2023/06/04 05:41:11;;;;;;;3.65;1.17;;;13.10;60.00;;;;;;4974986;28;20057;-73
2023/06/04 05:43:39;;;;;;;4.93;1.42;;;13.10;60.00;;;;;;4975061;28;20494;-76
2023/06/04 05:46:10;;;;;;;3.25;1.52;;;13.20;59.70;;;;;;4994336;28;20488;-75
2023/06/04 05:48:37;;;;;;;3.97;1.40;;;13.20;59.60;;;;;;4989361;28;20087;-75
2023/06/04 05:51:04;;;;;;;3.15;1.50;;;13.20;59.40;;;;;;4990362;28;20050;-75
2023/06/04 05:53:31;;;;;;;4.18;1.63;;;13.20;59.70;;;;;;4971815;28;20066;-74
2023/06/04 05:55:58;;;;;;;2.88;1.30;;;13.30;59.90;;;;;;4966954;28;20069;-75
2023/06/04 05:58:26;;;;;;;4.32;1.40;;;13.40;59.70;;;;;;4994858;28;20051;-74
2023/06/04 06:00:53;;;;;;;4.25;1.42;;;13.40;59.40;;;;;;4981416;28;20104;-76
2023/06/04 06:03:21;;;;;;;4.50;1.30;;;13.30;59.70;;;;;;4980819;28;20060;-76
2023/06/04 06:05:50;;;;;;;2.83;1.33;;;13.40;59.90;;;;;;4979539;28;20058;-66
2023/06/04 06:08:17;;;;;;;3.47;1.50;;;13.50;59.60;;;;;;4967048;28;20129;-66
2023/06/04 06:10:44;;;;;;;3.88;1.20;;;13.50;59.70;;;;;;4977925;28;20057;-61
2023/06/04 06:13:11;;;;;;;3.00;1.23;;;13.60;59.40;;;;;;4988344;28;20088;-61
2023/06/04 06:15:39;;;;;;;3.35;1.58;;;13.60;59.60;;;;;;4974304;28;20057;-63
2023/06/04 06:18:06;;;;;;;3.20;1.40;;;13.70;59.50;;;;;;4978675;28;20046;-65
2023/06/04 06:20:33;;;;;;;4.00;1.52;;;13.80;59.30;;;;;;4970426;28;20560;-67
2023/06/04 06:23:07;;;;;;;3.30;1.30;;;13.80;59.10;;;;;;4995548;28;20049;-67
2023/06/04 06:25:34;;;;;;;4.28;1.67;;;13.90;59.00;;;;;;4975171;28;20143;-75
2023/06/04 06:28:09;;;;;;;3.50;1.48;;;14.00;58.80;;;;;;4977715;28;20140;-73
2023/06/04 06:30:38;;;;;;;4.38;1.80;;;14.20;58.60;;;;;;4978025;28;20056;-73
2023/06/04 06:33:06;;;;;;;3.03;1.42;;;14.30;58.40;;;;;;4996312;28;20144;-74
2023/06/04 06:35:33;;;;;;;4.40;1.63;;;14.40;58.00;;;;;;4991297;28;20050;-70
2023/06/04 06:38:00;;;;;;;3.35;1.45;;;14.60;57.50;;;;;;4996761;28;20046;-70
2023/06/04 06:40:26;;;;;;;3.75;1.70;;;14.80;57.10;;;;;;4992823;28;20060;-77
2023/06/04 06:42:53;;;;;;;4.35;1.90;;;15.00;56.60;;;;;;4997685;28;20426;-76
2023/06/04 06:45:21;;;;;;;3.83;1.63;;;15.10;56.40;;;;;;4996884;28;20049;-70
2023/06/04 06:47:49;;;;;;;4.32;1.70;;;15.30;55.90;;;;;;4998731;28;20536;-69
2023/06/04 06:50:16;;;;;;;3.88;1.65;;;15.50;55.60;;;;;;4995648;28;20039;-69
2023/06/04 06:52:43;;;;;;;4.20;2.15;;;15.70;55.30;;;;;;4995345;28;20437;-70
2023/06/04 06:55:10;;;;;;;4.38;1.55;;;15.90;55.10;;;;;;4992192;28;20694;-68
2023/06/04 06:57:37;;;;;;;4.25;1.70;;;16.00;54.60;;;;;;4994429;28;20070;-68
2023/06/04 07:00:05;;;;;;;4.28;1.70;;;16.20;54.30;;;;;;4996809;28;20120;-69
2023/06/04 07:02:32;;;;;;;4.10;1.88;;;16.40;53.50;;;;;;4994652;28;21185;-69
2023/06/04 07:05:01;;;;;;;3.97;1.95;;;16.50;53.00;;;;;;4998411;28;20481;-69
2023/06/04 07:07:28;;;;;;;3.78;1.63;;;16.70;52.50;;;;;;4990149;28;20168;-69
2023/06/04 07:09:55;;;;;;;4.97;2.22;;;16.80;52.40;;;;;;4990953;28;20042;-69
2023/06/04 07:12:22;;;;;;;5.22;2.97;;;16.90;51.80;;;;;;4992132;28;20046;-70
2023/06/04 07:14:49;;;;;;;6.38;2.85;;;17.10;51.80;;;;;;4993714;28;20058;-69
2023/06/04 07:17:16;;;;;;;6.05;3.30;;;17.30;51.00;;;;;;4995107;28;20048;-70
2023/06/04 07:19:42;;;;;;;7.00;3.22;;;17.50;50.70;;;;;;4994574;28;20052;-70
2023/06/04 07:22:11;;;;;;;7.28;2.75;;;17.60;50.30;;;;;;4994399;28;20060;-69
2023/06/04 07:24:38;;;;;;;6.18;2.80;;;17.70;50.20;;;;;;4995806;28;20048;-70
2023/06/04 07:27:12;;;;;;;6.65;2.67;;;17.90;49.80;;;;;;4996229;28;20133;-69
2023/06/04 07:29:39;;;;;;;7.10;2.20;;;18.20;49.30;;;;;;4992454;28;20046;-70
2023/06/04 07:32:06;;;;;;;3.78;1.92;;;18.40;49.20;;;;;;4995800;28;20101;-69
2023/06/04 07:34:33;;;;;;;3.55;1.80;;;18.50;49.10;;;;;;4993980;28;20054;-68
2023/06/04 07:37:00;;;;;;;4.63;1.77;;;18.60;48.40;;;;;;4993411;28;20115;-69
2023/06/04 07:39:29;;;;;;;4.43;1.83;;;18.70;48.10;;;;;;4994273;28;20050;-69
2023/06/04 07:41:55;;;;;;;4.13;1.70;;;19.00;46.40;;;;;;4995024;28;20111;-69
2023/06/04 07:44:22;;;;;;;2.85;1.38;;;19.10;46.90;;;;;;4992213;28;20128;-70
2023/06/04 07:46:49;;;;;;;3.65;1.40;;;19.20;46.80;;;;;;4991519;28;20060;-69
2023/06/04 07:49:16;;;;;;;6.57;1.73;;;19.40;46.40;;;;;;4994653;28;20058;-69
2023/06/04 07:51:43;;;;;;;3.08;1.58;;;19.50;45.70;;;;;;4997094;28;20060;-68
2023/06/04 07:54:10;;;;;;;3.63;1.55;;;19.60;45.70;;;;;;4991810;28;20076;-68
2023/06/04 07:56:39;;;;;;;3.17;1.48;;;19.80;45.10;;;;;;4993526;28;20048;-68
2023/06/04 07:59:06;;;;;;;3.05;1.60;;;20.00;44.80;;;;;;4997527;28;20042;-69
2023/06/04 08:01:33;;;;;;;3.60;1.70;;;20.10;44.80;;;;;;4993858;28;20062;-69
2023/06/04 08:04:00;;;;;;;5.10;1.90;;;20.20;44.40;;;;;;4994817;28;20401;-69
2023/06/04 08:06:27;;;;;;;4.93;1.88;;;20.40;44.40;;;;;;4976496;28;20042;-80
2023/06/04 08:08:54;;;;;;;5.20;2.10;;;20.50;45.00;;;;;;4995031;28;20053;-80
2023/06/04 08:11:22;;;;;;;4.63;2.10;;;20.60;45.40;;;;;;4993894;28;20074;-81
2023/06/04 08:13:50;;;;;;;5.88;2.15;;;20.80;44.00;;;;;;4993799;28;20065;-78
2023/06/04 08:16:17;;;;;;;3.65;1.83;;;20.90;44.90;;;;;;4993125;28;20049;-69
2023/06/04 08:18:44;;;;;;;5.75;1.85;;;21.10;44.00;;;;;;4992994;28;20050;-70
2023/06/04 08:21:12;;;;;;;4.72;1.70;;;21.30;43.90;;;;;;4995553;28;20141;-66
2023/06/04 08:23:39;;;;;;;5.00;1.70;;;21.30;43.40;;;;;;4994743;28;20057;-64
2023/06/04 08:26:07;;;;;;;3.70;1.90;;;21.50;43.10;;;;;;4989291;28;20054;-70
2023/06/04 08:28:34;;;;;;;4.20;1.42;;;21.50;43.20;;;;;;4992812;28;20062;-70
2023/06/04 08:31:02;;;;;;;4.90;1.85;;;21.60;43.80;;;;;;4994136;28;20501;-60
2023/06/04 08:33:29;;;;;;;4.55;1.65;;;21.80;43.70;;;;;;4996546;28;20049;-61
2023/06/04 08:35:56;;;;;;;4.55;1.35;;;21.90;43.50;;;;;;4993933;28;20138;-71
2023/06/04 08:38:23;;;;;;;4.80;1.38;;;22.10;42.50;;;;;;4991985;28;20129;-70
2023/06/04 08:40:53;;;;;;;3.25;1.50;;;22.10;42.50;;;;;;4990179;28;20065;-71
2023/06/04 08:43:21;;;;;;;3.60;1.50;;;22.10;41.70;;;;;;4993821;28;20434;-70
2023/06/04 08:45:50;;;;;;;3.58;1.48;;;22.20;42.10;;;;;;4995403;28;20055;-70
2023/06/04 08:48:21;;;;;;;3.75;1.30;;;22.30;42.50;;;;;;4993607;28;20042;-71
2023/06/04 08:50:50;;;;;;;3.88;1.42;;;22.50;40.70;;;;;;4994260;28;20042;-70
2023/06/04 08:53:17;;;;;;;2.85;1.35;;;22.60;41.30;;;;;;4988401;28;21093;-70
2023/06/04 08:55:44;;;;;;;2.88;1.30;;;22.70;40.30;;;;;;4993894;28;20046;-70
2023/06/04 08:58:12;;;;;;;4.10;1.40;;;22.90;39.60;;;;;;4993610;28;20545;-69
2023/06/04 09:00:40;;;;;;;2.67;1.23;;;22.90;39.90;;;;;;4995446;28;20081;-60
2023/06/04 09:03:07;;;;;;;4.30;1.17;;;23.00;39.60;;;;;;4994785;28;20519;-60
2023/06/04 09:05:37;;;;;;;3.20;1.35;;;23.10;39.60;;;;;;4993067;28;20528;-69
2023/06/04 09:08:08;;;;;;;4.03;1.20;;;23.20;37.60;;;;;;4990792;28;20052;-69
2023/06/04 09:10:37;;;;;;;4.90;1.40;;;23.30;36.90;;;;;;4987958;28;20053;-69
2023/06/04 09:13:05;;;;;;;3.58;1.40;;;23.40;37.40;;;;;;4991200;28;20049;-70
2023/06/04 09:15:32;;;;;;;2.92;1.35;;;23.50;38.10;;;;;;4990195;28;20058;-70
2023/06/04 09:17:59;;;;;;;3.88;1.20;;;23.60;38.10;;;;;;4989920;28;20046;-70
2023/06/04 09:20:26;;;;;;;2.63;1.10;;;23.60;38.10;;;;;;4993278;28;20136;-70
2023/06/04 09:22:54;;;;;;;2.92;1.35;;;23.80;37.60;;;;;;4990092;28;20078;-69
2023/06/04 09:25:22;;;;;;;4.07;1.47;;;23.80;36.90;;;;;;4993255;28;20055;-68
2023/06/04 09:27:49;;;;;;;5.43;1.67;;;23.90;38.30;;;;;;4987404;28;20054;-68
2023/06/04 09:30:16;;;;;;;5.30;2.95;;;24.00;37.30;;;;;;4990223;28;20132;-69
2023/06/04 09:32:45;;;;;;;4.63;2.70;;;24.10;37.10;;;;;;4991317;28;20486;-70
2023/06/04 09:35:13;;;;;;;9.45;4.07;;;24.20;37.30;;;;;;4990374;28;20051;-70
2023/06/04 09:37:41;;;;;;;7.43;5.15;;;24.30;36.30;;;;;;4993389;28;20054;-70
2023/06/04 09:40:10;;;;;;;7.75;4.43;;;24.40;37.50;;;;;;4993405;28;20077;-70
2023/06/04 09:42:44;;;;;;;8.50;4.50;;;24.50;37.80;;;;;;4992243;28;20049;-70
2023/06/04 09:45:11;;;;;;;7.40;4.60;;;24.60;37.00;;;;;;4992438;28;20054;-69
2023/06/04 09:47:42;;;;;;;6.55;4.25;;;24.60;37.60;;;;;;4991740;28;20057;-74
2023/06/04 09:50:11;;;;;;;5.95;3.63;;;24.60;37.30;;;;;;4994062;28;20050;-75
2023/06/04 09:52:39;;;;;;;6.07;3.87;;;24.70;36.60;;;;;;4994156;28;20046;-67
2023/06/04 09:55:19;;;;;;;8.10;5.32;;;24.80;35.90;;;;;;4992395;28;20137;-67
2023/06/04 09:57:49;;;;;;;9.00;6.28;;;24.80;35.40;;;;;;4988754;28;20125;-67
2023/06/04 10:00:17;;;;;;;9.43;6.72;;;24.90;35.40;;;;;;4989630;28;20045;-67
2023/06/04 10:02:45;;;;;;;11.38;6.60;;;25.00;35.50;;;;;;4988072;28;20081;-67
2023/06/04 10:05:14;;;;;;;8.85;5.78;;;25.10;36.00;;;;;;4984984;28;20073;-67
2023/06/04 10:07:43;;;;;;;9.30;5.90;;;25.20;35.60;;;;;;4985000;28;20042;-67
2023/06/04 10:10:15;;;;;;;7.65;4.35;;;25.20;35.80;;;;;;4989921;28;20541;-67
2023/06/04 10:12:44;;;;;;;5.63;3.38;;;25.30;35.50;;;;;;4988336;28;20054;-67
2023/06/04 10:15:12;;;;;;;4.55;2.25;;;25.40;34.00;;;;;;4988953;28;20144;-67
2023/06/04 10:17:39;;;;;;;4.50;2.63;;;25.40;33.00;;;;;;4992759;28;20066;-65
2023/06/04 10:20:09;;;;;;;4.28;2.50;;;25.50;33.50;;;;;;4973581;28;20397;-66
2023/06/04 10:22:36;;;;;;;5.45;3.47;;;25.60;32.60;;;;;;4992173;28;20053;-80
2023/06/04 10:25:04;;;;;;;4.72;2.97;;;25.70;33.20;;;;;;4992753;28;20034;-80
2023/06/04 10:27:34;;;;;;;4.35;2.58;;;25.80;31.50;;;;;;4993414;28;20061;-75
2023/06/04 10:30:03;;;;;;;3.35;2.10;;;25.80;32.10;;;;;;4992247;28;20045;-75
2023/06/04 10:32:31;;;;;;;3.58;2.03;;;25.80;30.70;;;;;;4991719;28;20606;-67
2023/06/04 10:34:58;;;;;;;7.43;5.32;;;25.90;31.40;;;;;;4995391;28;20464;-67
2023/06/04 10:37:29;;;;;;;7.22;5.45;;;25.90;31.50;;;;;;4991612;28;20194;-75
2023/06/04 10:39:57;;;;;;;6.78;4.38;;;26.00;32.00;;;;;;4991608;28;20104;-75
2023/06/04 10:42:24;;;;;;;5.82;3.47;;;26.00;31.90;;;;;;4977427;28;20080;-79
2023/06/04 10:44:53;;;;;;;5.20;2.70;;;26.10;32.20;;;;;;4978272;28;20065;-79
2023/06/04 10:47:26;;;;;;;4.90;2.47;;;26.10;32.00;;;;;;4994866;28;20049;-65
2023/06/04 10:49:54;;;;;;;5.50;2.33;;;26.30;31.40;;;;;;4993195;28;20050;-66
2023/06/04 10:52:22;;;;;;;3.70;1.90;;;26.30;31.40;;;;;;4993001;28;20077;-79
2023/06/04 10:54:51;;;;;;;4.05;1.60;;;26.30;31.20;;;;;;4993813;28;20396;-79
2023/06/04 10:57:19;;;;;;;5.13;1.83;;;26.20;31.50;;;;;;4982321;28;20049;-73
2023/06/04 10:59:55;;;;;;;2.78;1.40;;;26.30;31.60;;;;;;4996749;28;20405;-73
2023/06/04 11:02:24;;;;;;;3.58;1.67;;;26.40;31.50;;;;;;4995827;28;20045;-66
2023/06/04 11:05:05;;;;;;;2.97;1.73;;;26.40;31.70;;;;;;4998850;28;20058;-67
2023/06/04 11:07:42;;;;;;;3.28;1.70;;;26.40;32.10;;;;;;4989961;28;20374;-70
2023/06/04 11:10:11;;;;;;;4.78;1.80;;;26.40;31.40;;;;;;4994961;28;20152;-69
2023/06/04 11:12:44;;;;;;;4.25;1.75;;;26.50;31.30;;;;;;4994781;28;20062;-70
2023/06/04 11:15:12;;;;;;;5.03;2.08;;;26.50;31.30;;;;;;4995082;28;20034;-69
2023/06/04 11:17:51;;;;;;;3.63;1.77;;;26.60;31.40;;;;;;4997552;28;20052;-70
2023/06/04 11:20:18;;;;;;;;;;;26.60;30.70;;;;;;4994845;28;20116;-69
2023/06/04 11:22:53;;;;;;;4.97;2.47;;;26.70;30.70;;;;;;4996672;28;19933;-70
2023/06/04 11:25:22;;;;;;;4.35;2.45;;;26.80;30.20;;;;;;4991681;28;20046;-70
2023/06/04 11:27:49;;;;;;;5.10;2.80;;;26.80;30.60;;;;;;4996394;28;20049;-69
2023/06/04 11:30:17;;;;;;;5.53;3.25;;;26.80;29.80;;;;;;4993689;28;20092;-69
2023/06/04 11:32:45;;;;;;;4.85;2.33;;;26.80;29.80;;;;;;4997067;28;20057;-70
2023/06/04 11:35:12;;;;;;;4.20;1.95;;;26.70;29.80;;;;;;4993215;28;20061;-69
2023/06/04 11:37:39;;;;;;;4.50;1.88;;;26.80;29.90;;;;;;4993301;28;20046;-70
2023/06/04 11:40:17;;;;;;;3.13;2.13;;;26.80;30.00;;;;;;4992177;28;20045;-70
2023/06/04 11:42:45;;;;;;;6.55;3.47;;;26.90;29.60;;;;;;4993783;28;20498;-69
2023/06/04 11:45:14;;;;;;;4.05;2.58;;;26.90;30.50;;;;;;4966796;28;20054;-69
2023/06/04 11:47:42;;;;;;;3.20;1.90;;;26.80;30.20;;;;;;4990575;28;20470;-71
2023/06/04 11:50:12;;;;;;;3.28;1.83;;;26.80;30.60;;;;;;4989494;28;20132;-69
2023/06/04 11:52:39;;;;;;;3.03;1.70;;;26.80;29.70;;;;;;4992537;28;20050;-71
2023/06/04 11:55:30;;;;;;;3.47;1.70;;;26.80;28.80;;;;;;4986237;28;20114;-71
2023/06/04 11:57:57;;;;;;;2.38;1.40;;;26.90;29.10;;;;;;4936210;28;20058;-71
2023/06/04 12:00:24;;;;;;;3.78;1.55;;;26.90;28.90;;;;;;4989042;28;20058;-78
2023/06/04 12:02:59;;;;;;;4.70;1.83;;;27.00;30.10;;;;;;4995378;28;20046;-79
2023/06/04 12:05:35;;;;;;;3.20;1.40;;;27.00;29.20;;;;;;4972457;28;20045;-67
2023/06/04 12:08:09;;;;;;;3.60;1.40;;;27.00;29.60;;;;;;4962230;28;20038;-66
2023/06/04 12:10:40;;;;;;;2.90;1.48;;;26.90;30.20;;;;;;4989254;28;20137;-66
2023/06/04 12:13:30;;;;;;;4.05;1.75;;;27.00;30.00;;;;;;4981943;28;20068;-64
2023/06/04 12:16:13;;;;;;;3.25;1.50;;;27.00;29.90;;;;;;4989337;28;20054;-66
2023/06/04 12:18:43;;;;;;;3.95;1.77;;;27.00;29.50;;;;;;4980182;28;20497;-65
2023/06/04 12:21:33;;;;;;;6.18;2.33;;;27.00;30.00;;;;;;4969400;28;20049;-66
2023/06/04 12:24:16;;;;;;;8.05;2.40;;;26.90;29.60;;;;;;4991982;28;20241;-65
2023/06/04 12:26:47;;;;;;;8.57;2.78;;;27.00;29.80;;;;;;4994673;28;20060;-79
2023/06/04 12:29:15;;;;;;;5.40;2.80;;;26.90;30.20;;;;;;4968107;28;20046;-79
2023/06/04 12:31:47;;;;;;;7.63;3.70;;;27.00;29.90;;;;;;4988024;28;20409;-60
2023/06/04 12:34:14;;;;;;;6.85;3.95;;;27.00;29.40;;;;;;4979558;28;20055;-60
2023/06/04 12:37:11;;;;;;;5.80;4.15;;;27.00;29.30;;;;;;4993312;28;20057;-59
2023/06/04 12:39:42;;;;;;;6.60;3.45;;;26.90;29.20;;;;;;4947818;28;20050;-60
2023/06/04 12:42:12;;;;;;;4.13;2.45;;;26.80;29.80;;;;;;4985606;28;20041;-72
2023/06/04 12:44:45;;;;;;;6.63;2.78;;;26.80;29.70;;;;;;4997076;28;20066;-73
2023/06/04 12:47:19;;;;;;;5.18;3.20;;;26.80;29.00;;;;;;4991239;28;20054;-72
2023/06/04 12:49:54;;;;;;;5.15;2.80;;;26.80;29.30;;;;;;4995007;28;20129;-73
2023/06/04 12:52:21;;;;;;;5.00;2.85;;;26.80;30.00;;;;;;4992728;28;20545;-71
2023/06/04 12:54:49;;;;;;;6.00;2.65;;;26.70;29.10;;;;;;4995873;28;20530;-71
2023/06/04 12:57:18;;;;;;;4.90;2.30;;;26.60;29.50;;;;;;4990035;28;20065;-69